createdAt,value
2018-06-03T00:03:44.758Z,17.60
2018-06-03T00:08:49.055Z,17.60
2018-06-03T00:13:52.741Z,17.20
2018-06-03T00:18:56.274Z,17.20
2018-06-03T00:23:59.997Z,17.30
2018-06-03T00:29:03.289Z,17.30
2018-06-03T00:34:08.864Z,17.20
2018-06-03T00:39:12.154Z,17.20
2018-06-03T00:44:15.559Z,17.00
2018-06-03T00:49:19.385Z,16.90
2018-06-03T00:54:49.718Z,16.90
2018-06-03T00:59:54.034Z,16.80
2018-06-03T01:05:08.796Z,16.80
2018-06-03T01:10:13.423Z,16.90
2018-06-03T01:15:20.850Z,16.90
2018-06-03T01:20:24.132Z,16.90
2018-06-03T01:25:28.016Z,17.00
2018-06-03T01:30:31.292Z,17.00
2018-06-03T01:35:34.560Z,16.90
2018-06-03T01:40:38.718Z,16.60
2018-06-03T01:45:43.022Z,16.60
2018-06-03T01:50:46.264Z,16.50
2018-06-03T01:55:49.718Z,16.40
2018-06-03T02:00:54.153Z,16.10
2018-06-03T02:05:57.418Z,16.00
2018-06-03T02:11:00.639Z,16.10
2018-06-03T02:16:04.256Z,16.10
2018-06-03T02:21:07.958Z,16.00
2018-06-03T02:26:13.008Z,15.90
2018-06-03T02:31:16.776Z,16.10
2018-06-03T02:36:20.304Z,16.10
2018-06-03T02:41:23.544Z,16.10
2018-06-03T02:46:41.398Z,16.10
2018-06-03T02:51:44.709Z,15.90
2018-06-03T02:56:48.089Z,15.70
2018-06-03T03:01:51.473Z,15.50
2018-06-03T03:06:55.116Z,15.30
2018-06-03T03:11:58.337Z,15.30
2018-06-03T03:17:02.475Z,15.30
2018-06-03T03:22:09.080Z,15.40
2018-06-03T03:27:12.314Z,15.50
2018-06-03T03:32:15.533Z,15.40
2018-06-03T03:37:18.760Z,15.10
2018-06-03T03:42:22.741Z,15.10
2018-06-03T03:47:26.110Z,15.10
2018-06-03T03:52:29.748Z,15.10
2018-06-03T04:03:07.907Z,15.10
2018-06-03T04:08:11.153Z,15.20
2018-06-03T04:13:14.697Z,15.30
2018-06-03T04:18:18.105Z,15.40
2018-06-03T04:23:21.373Z,15.60
2018-06-03T04:28:24.699Z,15.90
2018-06-03T04:33:28.337Z,16.30
2018-06-03T04:38:31.698Z,16.30
2018-06-03T04:43:35.340Z,16.60
2018-06-03T04:48:38.608Z,16.60
2018-06-03T04:59:10.901Z,16.90
2018-06-03T05:04:15.164Z,17.20
2018-06-03T05:09:18.457Z,17.50
2018-06-03T05:14:22.172Z,17.70
2018-06-03T05:19:25.408Z,17.80
2018-06-03T05:24:28.780Z,17.80
2018-06-03T05:29:32.018Z,18.10
2018-06-03T05:34:35.388Z,18.30
2018-06-03T05:39:38.616Z,18.50
2018-06-03T05:44:41.889Z,18.70
2018-06-03T05:49:45.190Z,18.80
2018-06-03T05:54:48.426Z,18.90
2018-06-03T05:59:51.778Z,19.10
2018-06-03T06:04:55.504Z,19.60
2018-06-03T06:09:59.199Z,19.70
2018-06-03T06:15:03.016Z,19.70
2018-06-03T06:20:06.679Z,19.90
2018-06-03T06:25:09.924Z,19.90
2018-06-03T06:30:13.733Z,20.00
2018-06-03T06:35:16.962Z,20.00
2018-06-03T06:40:51.808Z,20.20
2018-06-03T06:45:56.522Z,20.50
2018-06-03T06:51:01.350Z,20.50
2018-06-03T06:56:06.091Z,20.60
2018-06-03T07:01:10.942Z,20.90
2018-06-03T07:06:15.790Z,21.00
2018-06-03T07:11:20.917Z,20.90
2018-06-03T07:16:25.744Z,21.20
2018-06-03T07:21:30.363Z,21.30
2018-06-03T07:26:35.126Z,21.30
2018-06-03T07:31:40.009Z,21.10
2018-06-03T07:36:44.939Z,21.10
2018-06-03T07:41:49.709Z,21.20
2018-06-03T07:46:55.228Z,21.30
2018-06-03T07:52:00.027Z,21.50
2018-06-03T07:57:04.774Z,21.70
2018-06-03T08:07:13.850Z,22.20
2018-06-03T08:12:18.649Z,22.40
2018-06-03T08:17:23.319Z,22.30
2018-06-03T08:22:27.958Z,22.10
2018-06-03T08:27:33.391Z,22.10
2018-06-03T08:32:38.880Z,22.50
2018-06-03T08:37:43.682Z,22.50
2018-06-03T08:42:48.519Z,22.70
2018-06-03T08:47:53.369Z,22.80
2018-06-03T08:52:58.666Z,22.60
2018-06-03T08:58:03.637Z,23.30
2018-06-03T09:03:08.607Z,23.60
2018-06-03T09:08:13.467Z,23.30
2018-06-03T09:13:18.245Z,23.40
2018-06-03T09:18:22.967Z,23.10
2018-06-03T09:23:27.733Z,23.80
2018-06-03T09:28:32.486Z,23.80
2018-06-03T09:33:37.527Z,24.00
2018-06-03T09:38:42.761Z,23.70
2018-06-03T09:43:47.716Z,24.40
2018-06-03T09:48:52.540Z,25.00
2018-06-03T09:53:57.384Z,25.10
2018-06-03T09:59:02.811Z,25.00
2018-06-03T10:04:07.800Z,24.80
2018-06-03T10:09:13.603Z,25.30
2018-06-03T10:14:18.602Z,25.50
2018-06-03T10:19:23.514Z,26.20
2018-06-03T10:29:32.680Z,25.70
2018-06-03T10:34:37.438Z,26.10
2018-06-03T10:39:42.236Z,26.60
2018-06-03T10:44:47.038Z,27.10
2018-06-03T10:49:52.035Z,27.60
2018-06-03T10:54:56.694Z,27.60
2018-06-03T11:00:01.686Z,27.50
2018-06-03T11:05:06.515Z,27.60
2018-06-03T11:10:11.494Z,27.50
2018-06-03T11:15:16.643Z,27.40
2018-06-03T11:20:21.583Z,27.60
2018-06-03T11:25:26.416Z,28.00
2018-06-03T11:35:35.589Z,28.50
2018-06-03T11:40:40.203Z,28.70
2018-06-03T11:45:45.146Z,28.90
2018-06-03T11:50:50.103Z,29.50
2018-06-03T11:55:55.809Z,30.30
2018-06-03T12:01:00.453Z,30.00
2018-06-03T12:06:05.558Z,31.00
2018-06-03T12:11:10.227Z,31.20
2018-06-03T12:16:15.111Z,31.30
2018-06-03T12:21:20.070Z,32.30
2018-06-03T12:26:24.976Z,33.00
2018-06-03T12:31:29.646Z,34.20
2018-06-03T12:36:34.463Z,34.30
2018-06-03T12:41:39.522Z,35.60
2018-06-03T12:46:44.367Z,36.10
2018-06-03T12:51:49.059Z,36.00
2018-06-03T13:01:58.431Z,33.90
2018-06-03T13:07:03.295Z,32.80
2018-06-03T13:12:08.069Z,32.30
2018-06-03T13:17:13.039Z,33.90
2018-06-03T13:22:17.681Z,34.50
2018-06-03T13:27:22.574Z,33.90
2018-06-03T13:32:27.343Z,34.10
2018-06-03T13:37:32.079Z,34.80
2018-06-03T13:42:37.030Z,36.10
2018-06-03T13:47:41.875Z,35.80
2018-06-03T13:52:46.732Z,36.40
2018-06-03T13:57:51.742Z,37.50
2018-06-03T14:02:56.599Z,37.20
2018-06-03T14:08:01.244Z,35.40
2018-06-03T14:13:07.042Z,34.10
2018-06-03T14:18:11.904Z,34.30
2018-06-03T14:23:16.892Z,35.10
2018-06-03T14:28:22.104Z,35.00
2018-06-03T14:33:26.756Z,33.40
2018-06-03T14:38:31.590Z,36.40
2018-06-03T14:43:36.555Z,37.00
2018-06-03T14:48:41.241Z,37.10
2018-06-03T14:53:45.921Z,36.40
2018-06-03T14:58:50.465Z,36.70
2018-06-03T15:03:55.541Z,36.60
2018-06-03T15:14:04.448Z,37.50
2018-06-03T15:19:09.244Z,39.20
2018-06-03T15:24:14.200Z,39.10
2018-06-03T15:29:19.494Z,39.60
2018-06-03T15:34:24.315Z,38.70
2018-06-03T15:39:29.016Z,38.10
2018-06-03T15:44:33.877Z,37.70
2018-06-03T15:49:38.500Z,38.10
2018-06-03T15:54:43.277Z,38.00
2018-06-03T15:59:48.241Z,36.30
2018-06-03T16:04:53.023Z,36.70
2018-06-03T16:09:58.071Z,34.70
2018-06-03T16:15:02.843Z,34.30
2018-06-03T16:20:07.881Z,33.30
2018-06-03T16:30:16.959Z,31.90
2018-06-03T16:35:21.963Z,30.70
2018-06-03T16:40:26.706Z,29.80
2018-06-03T16:45:31.523Z,29.20
2018-06-03T16:50:36.500Z,28.90
2018-06-03T16:55:41.230Z,28.60
2018-06-03T17:00:45.940Z,28.20
2018-06-03T17:05:50.768Z,27.60
2018-06-03T17:10:55.542Z,27.50
2018-06-03T17:16:00.878Z,27.70
2018-06-03T17:21:05.795Z,27.70
2018-06-03T17:26:11.261Z,27.30
2018-06-03T17:31:15.889Z,27.20
2018-06-03T17:36:20.624Z,27.10
2018-06-03T17:41:25.277Z,27.00
2018-06-03T17:46:30.300Z,26.90
2018-06-03T17:51:35.230Z,26.80
2018-06-03T17:56:40.048Z,26.60
2018-06-03T18:01:45.887Z,26.30
2018-06-03T18:06:50.543Z,26.10
2018-06-03T18:11:55.236Z,25.90
2018-06-03T18:17:00.317Z,25.70
2018-06-03T18:22:05.192Z,25.40
2018-06-03T18:27:10.639Z,25.30
2018-06-03T18:32:15.374Z,25.10
2018-06-03T18:37:20.058Z,24.90
2018-06-03T18:42:25.070Z,24.80
2018-06-03T18:47:30.609Z,24.60
2018-06-03T18:57:39.976Z,24.30
2018-06-03T19:02:44.587Z,24.20
2018-06-03T19:07:49.557Z,24.10
2018-06-03T19:12:54.256Z,23.90
2018-06-03T19:17:59.241Z,23.90
2018-06-03T19:23:03.959Z,23.80
2018-06-03T19:28:09.091Z,23.70
2018-06-03T19:33:13.840Z,23.60
2018-06-03T19:43:22.665Z,23.50
2018-06-03T19:48:27.637Z,23.50
2018-06-03T19:53:32.339Z,23.50
2018-06-03T19:58:37.114Z,23.40
2018-06-03T20:03:41.956Z,23.30
2018-06-03T20:08:47.398Z,23.30
2018-06-03T20:13:52.109Z,23.30
2018-06-03T20:18:57.196Z,23.30
2018-06-03T20:29:06.367Z,23.20
2018-06-03T20:34:11.614Z,23.20
2018-06-03T20:39:16.433Z,23.10
2018-06-03T20:44:21.159Z,23.00
2018-06-03T20:49:25.874Z,22.80
2018-06-03T20:54:31.064Z,22.80
2018-06-03T20:59:36.009Z,22.70
2018-06-03T21:04:41.041Z,22.60
2018-06-03T21:09:46.599Z,22.50
2018-06-03T21:14:51.629Z,22.50
2018-06-03T21:19:58.947Z,22.50
2018-06-03T21:25:03.865Z,22.50
2018-06-03T21:30:08.554Z,22.40
2018-06-03T21:35:13.474Z,22.40
2018-06-03T21:40:49.439Z,22.30
2018-06-03T21:45:54.460Z,22.20
2018-06-03T21:50:59.407Z,22.20
2018-06-03T21:56:04.268Z,22.20
2018-06-03T22:06:13.028Z,22.10
2018-06-03T22:11:18.948Z,22.10
2018-06-03T22:16:23.924Z,22.10
2018-06-03T22:21:28.849Z,22.00
2018-06-03T22:26:34.132Z,22.00
2018-06-03T22:31:39.172Z,21.90
2018-06-03T22:36:44.194Z,21.90
2018-06-03T22:41:49.021Z,21.90
2018-06-03T22:46:53.836Z,21.80
2018-06-03T22:51:59.143Z,21.80
2018-06-03T22:57:43.933Z,21.70
2018-06-03T23:02:54.152Z,21.50
2018-06-03T23:08:00.869Z,21.40
2018-06-03T23:13:05.627Z,21.30
2018-06-03T23:18:12.454Z,21.20
2018-06-03T23:28:34.517Z,21.00
2018-06-03T23:33:39.499Z,21.00
2018-06-03T23:38:45.551Z,21.00
2018-06-03T23:43:51.420Z,21.00
2018-06-03T23:48:57.257Z,20.90
2018-06-03T23:54:02.367Z,21.00
2018-06-03T23:59:07.103Z,20.90
